sensor_id;sensor_type;location;lat;lon;timestamp;pressure;altitude;pressure_sealevel;temperature;humidity
11172;BME280;5642;50.830;12.082;2023-03-13T01:48:21;98656.06;;;11.41;45.71
11172;BME280;5642;50.830;12.082;2023-03-13T01:50:52;98620.84;;;11.27;45.35
11172;BME280;5642;50.830;12.082;2023-03-13T01:53:19;98653.63;;;11.55;45.33
11172;BME280;5642;50.830;12.082;2023-03-13T01:55:49;98646.38;;;11.60;45.46
11172;BME280;5642;50.830;12.082;2023-03-13T01:58:15;98643.75;;;11.60;45.38
11172;BME280;5642;50.830;12.082;2023-03-13T02:00:42;98641.06;;;11.61;45.57
11172;BME280;5642;50.830;12.082;2023-03-13T02:03:14;98625.47;;;11.58;45.20
11172;BME280;5642;50.830;12.082;2023-03-13T02:05:42;98635.59;;;11.66;45.41
11172;BME280;5642;50.830;12.082;2023-03-13T02:08:15;98629.31;;;11.70;45.38
11172;BME280;5642;50.830;12.082;2023-03-13T02:11:00;98583.13;;;11.49;45.39
11172;BME280;5642;50.830;12.082;2023-03-13T02:13:29;98619.59;;;11.72;45.61
11172;BME280;5642;50.830;12.082;2023-03-13T02:15:55;98617.44;;;11.80;45.24
11172;BME280;5642;50.830;12.082;2023-03-13T02:18:21;98610.28;;;11.84;45.61
11172;BME280;5642;50.830;12.082;2023-03-13T02:20:50;98606.56;;;11.88;45.44
11172;BME280;5642;50.830;12.082;2023-03-13T02:23:25;98593.38;;;11.89;45.68
11172;BME280;5642;50.830;12.082;2023-03-13T02:25:53;98551.44;;;11.70;45.37
11172;BME280;5642;50.830;12.082;2023-03-13T02:30:54;98577.41;;;11.94;45.44
11172;BME280;5642;50.830;12.082;2023-03-13T02:33:20;98552.69;;;11.81;45.64
11172;BME280;5642;50.830;12.082;2023-03-13T02:35:47;98537.41;;;11.71;45.88
11172;BME280;5642;50.830;12.082;2023-03-13T02:38:20;98568.84;;;11.90;45.56
11172;BME280;5642;50.830;12.082;2023-03-13T02:40:47;98561.13;;;11.87;45.40
11172;BME280;5642;50.830;12.082;2023-03-13T02:43:36;98562.06;;;11.86;45.25
11172;BME280;5642;50.830;12.082;2023-03-13T04:48:48;98349.44;;;12.82;45.52
11172;BME280;5642;50.830;12.082;2023-03-13T04:51:14;98334.22;;;12.87;45.66
11172;BME280;5642;50.830;12.082;2023-03-13T04:53:40;98317.81;;;12.83;45.55
11172;BME280;5642;50.830;12.082;2023-03-13T04:56:07;98291.13;;;12.75;45.44
11172;BME280;5642;50.830;12.082;2023-03-13T04:58:33;98316.84;;;13.00;45.67
11172;BME280;5642;50.830;12.082;2023-03-13T05:00:59;98282.81;;;12.83;45.41
11172;BME280;5642;50.830;12.082;2023-03-13T05:03:26;98276.69;;;12.82;45.48
11172;BME280;5642;50.830;12.082;2023-03-13T05:05:52;98309.25;;;13.10;45.45
11172;BME280;5642;50.830;12.082;2023-03-13T05:08:18;98319.75;;;13.10;45.48
11172;BME280;5642;50.830;12.082;2023-03-13T05:10:45;98311.66;;;13.14;45.40
11172;BME280;5642;50.830;12.082;2023-03-13T05:13:13;98271.16;;;12.87;45.57
11172;BME280;5642;50.830;12.082;2023-03-13T05:15:39;98255.41;;;12.87;45.46
11172;BME280;5642;50.830;12.082;2023-03-13T05:18:11;98227.31;;;12.73;45.35
11172;BME280;5642;50.830;12.082;2023-03-13T05:20:38;98309.28;;;13.24;45.43
11172;BME280;5642;50.830;12.082;2023-03-13T05:23:05;98240.94;;;12.94;45.28
11172;BME280;5642;50.830;12.082;2023-03-13T05:25:31;98233.84;;;12.96;45.39
11172;BME280;5642;50.830;12.082;2023-03-13T05:27:57;98208.69;;;12.92;45.55
11172;BME280;5642;50.830;12.082;2023-03-13T05:30:31;98276.34;;;13.32;45.28
11172;BME280;5642;50.830;12.082;2023-03-13T05:33:08;98225.19;;;13.08;45.54
11172;BME280;5642;50.830;12.082;2023-03-13T05:38:55;98224.78;;;13.16;45.45
11172;BME280;5642;50.830;12.082;2023-03-13T05:41:21;98218.78;;;13.14;45.37
11172;BME280;5642;50.830;12.082;2023-03-13T05:43:47;98258.78;;;13.47;45.51
11172;BME280;5642;50.830;12.082;2023-03-13T05:46:13;98244.13;;;13.43;45.72
11172;BME280;5642;50.830;12.082;2023-03-13T07:48:35;98128.91;;;14.56;45.96
11172;BME280;5642;50.830;12.082;2023-03-13T07:51:18;98137.00;;;14.78;45.81
11172;BME280;5642;50.830;12.082;2023-03-13T07:53:47;98065.88;;;14.53;45.78
11172;BME280;5642;50.830;12.082;2023-03-13T07:56:21;98083.25;;;14.68;45.68
11172;BME280;5642;50.830;12.082;2023-03-13T07:58:53;98067.56;;;14.66;45.83
11172;BME280;5642;50.830;12.082;2023-03-13T08:01:23;98084.72;;;14.72;45.57
11172;BME280;5642;50.830;12.082;2023-03-13T08:03:56;98109.59;;;15.06;45.56
11172;BME280;5642;50.830;12.082;2023-03-13T08:06:49;98101.78;;;15.04;45.67
11172;BME280;5642;50.830;12.082;2023-03-13T08:09:19;98059.94;;;14.87;45.78
11172;BME280;5642;50.830;12.082;2023-03-13T08:11:45;98127.81;;;15.21;45.51
11172;BME280;5642;50.830;12.082;2023-03-13T08:14:20;98083.34;;;15.04;45.49
11172;BME280;5642;50.830;12.082;2023-03-13T08:16:58;98044.97;;;14.87;45.74
11172;BME280;5642;50.830;12.082;2023-03-13T08:19:25;98122.72;;;15.31;45.59
11172;BME280;5642;50.830;12.082;2023-03-13T08:21:59;98083.50;;;15.14;45.46
11172;BME280;5642;50.830;12.082;2023-03-13T08:24:30;98086.84;;;15.28;45.60
11172;BME280;5642;50.830;12.082;2023-03-13T08:27:05;98072.41;;;15.34;45.29
11172;BME280;5642;50.830;12.082;2023-03-13T08:29:35;98120.31;;;15.77;45.39
11172;BME280;5642;50.830;12.082;2023-03-13T08:32:02;98071.38;;;15.60;45.55
11172;BME280;5642;50.830;12.082;2023-03-13T08:34:29;98090.09;;;15.81;45.47
11172;BME280;5642;50.830;12.082;2023-03-13T08:36:58;98048.09;;;15.54;45.53
11172;BME280;5642;50.830;12.082;2023-03-13T08:39:26;98058.09;;;15.62;45.67
11172;BME280;5642;50.830;12.082;2023-03-13T08:41:54;98046.69;;;15.61;45.51
11172;BME280;5642;50.830;12.082;2023-03-13T08:44:22;98083.28;;;15.90;45.76
11172;BME280;5642;50.830;12.082;2023-03-13T08:46:56;98077.16;;;15.89;45.42
11172;BME280;5642;50.830;12.082;2023-03-13T09:49:52;98098.44;;;17.36;45.31
11172;BME280;5642;50.830;12.082;2023-03-13T09:52:47;98125.59;;;17.49;45.09
11172;BME280;5642;50.830;12.082;2023-03-13T09:58:18;98074.84;;;17.44;45.18
11172;BME280;5642;50.830;12.082;2023-03-13T10:01:08;98051.28;;;17.30;45.05
11172;BME280;5642;50.830;12.082;2023-03-13T10:06:48;98124.50;;;17.74;45.02
11172;BME280;5642;50.830;12.082;2023-03-13T10:09:28;98069.50;;;17.55;44.92
11172;BME280;5642;50.830;12.082;2023-03-13T10:15:05;98053.38;;;17.58;44.94
11172;BME280;5642;50.830;12.082;2023-03-13T10:17:40;98026.31;;;17.66;44.99
11172;BME280;5642;50.830;12.082;2023-03-13T10:20:24;98105.34;;;18.13;44.88
11172;BME280;5642;50.830;12.082;2023-03-13T10:23:06;98035.53;;;17.82;44.83
11172;BME280;5642;50.830;12.082;2023-03-13T10:25:38;98044.47;;;18.02;44.78
11172;BME280;5642;50.830;12.082;2023-03-13T10:28:10;98061.84;;;18.16;44.80
11172;BME280;5642;50.830;12.082;2023-03-13T10:30:57;98069.25;;;18.33;44.82
11172;BME280;5642;50.830;12.082;2023-03-13T10:33:27;98035.16;;;18.08;44.92
11172;BME280;5642;50.830;12.082;2023-03-13T10:38:51;98058.38;;;18.15;44.61
11172;BME280;5642;50.830;12.082;2023-03-13T10:44:20;98061.72;;;17.96;44.71
11172;BME280;5642;50.830;12.082;2023-03-13T10:47:08;98052.22;;;17.94;44.82
11172;BME280;5642;50.830;12.082;2023-03-13T11:50:01;97969.31;;;23.38;43.30
11172;BME280;5642;50.830;12.082;2023-03-13T11:52:37;98009.66;;;23.61;43.06
11172;BME280;5642;50.830;12.082;2023-03-13T11:55:25;98006.66;;;23.56;42.63
11172;BME280;5642;50.830;12.082;2023-03-13T11:58:04;97965.22;;;23.10;42.68
11172;BME280;5642;50.830;12.082;2023-03-13T12:00:52;97989.88;;;22.96;42.53
11172;BME280;5642;50.830;12.082;2023-03-13T12:03:44;97992.38;;;22.97;42.53
11172;BME280;5642;50.830;12.082;2023-03-13T12:06:35;97929.16;;;22.64;42.48
11172;BME280;5642;50.830;12.082;2023-03-13T12:09:30;97962.44;;;22.78;42.22
11172;BME280;5642;50.830;12.082;2023-03-13T12:12:14;97979.44;;;22.77;42.38
11172;BME280;5642;50.830;12.082;2023-03-13T12:14:48;98000.81;;;22.51;42.63
11172;BME280;5642;50.830;12.082;2023-03-13T12:17:43;97985.25;;;22.20;42.44
11172;BME280;5642;50.830;12.082;2023-03-13T12:26:19;97968.81;;;21.89;42.77
11172;BME280;5642;50.830;12.082;2023-03-13T12:31:46;97951.09;;;21.63;42.70
11172;BME280;5642;50.830;12.082;2023-03-13T12:34:28;97963.19;;;21.57;42.61
11172;BME280;5642;50.830;12.082;2023-03-13T12:37:16;97957.31;;;21.36;42.80
11172;BME280;5642;50.830;12.082;2023-03-13T12:40:11;97946.09;;;21.15;43.06
11172;BME280;5642;50.830;12.082;2023-03-13T12:45:17;97892.09;;;20.77;42.90
11172;BME280;5642;50.830;12.082;2023-03-13T12:56:46;97910.31;;;20.99;42.88
11172;BME280;5642;50.830;12.082;2023-03-13T12:59:25;97903.63;;;20.95;42.87
11172;BME280;5642;50.830;12.082;2023-03-13T13:01:53;97856.44;;;20.70;42.75
11172;BME280;5642;50.830;12.082;2023-03-13T13:04:24;97873.78;;;20.74;42.76
11172;BME280;5642;50.830;12.082;2023-03-13T13:07:04;97912.72;;;20.93;42.83
11172;BME280;5642;50.830;12.082;2023-03-13T13:09:35;97886.03;;;20.85;42.93
11172;BME280;5642;50.830;12.082;2023-03-13T13:12:20;97925.25;;;21.10;42.71
11172;BME280;5642;50.830;12.082;2023-03-13T13:19:54;97935.81;;;21.02;42.56
11172;BME280;5642;50.830;12.082;2023-03-13T13:25:29;97923.09;;;20.96;42.67
11172;BME280;5642;50.830;12.082;2023-03-13T13:28:18;97924.38;;;20.92;42.70
11172;BME280;5642;50.830;12.082;2023-03-13T13:30:48;97918.50;;;20.88;42.83
11172;BME280;5642;50.830;12.082;2023-03-13T13:38:35;97913.16;;;20.61;43.22
11172;BME280;5642;50.830;12.082;2023-03-13T13:43:44;97929.09;;;20.33;43.04
11172;BME280;5642;50.830;12.082;2023-03-13T13:46:27;97895.44;;;20.05;43.35
11172;BME280;5642;50.830;12.082;2023-03-13T15:23:41;97762.94;;;19.83;43.74
11172;BME280;5642;50.830;12.082;2023-03-13T15:26:07;97740.78;;;19.65;44.05
11172;BME280;5642;50.830;12.082;2023-03-13T15:28:34;97748.03;;;19.72;44.08
11172;BME280;5642;50.830;12.082;2023-03-13T15:31:01;97737.16;;;19.66;44.05
11172;BME280;5642;50.830;12.082;2023-03-13T15:33:28;97731.28;;;19.62;44.04
11172;BME280;5642;50.830;12.082;2023-03-13T15:35:55;97710.09;;;19.52;44.05
11172;BME280;5642;50.830;12.082;2023-03-13T15:38:24;97718.97;;;19.61;43.92
11172;BME280;5642;50.830;12.082;2023-03-13T15:40:51;97729.56;;;19.71;44.02
11172;BME280;5642;50.830;12.082;2023-03-13T15:43:18;97724.97;;;19.73;44.00
11172;BME280;5642;50.830;12.082;2023-03-13T15:45:47;97716.16;;;19.72;44.15
11172;BME280;5642;50.830;12.082;2023-03-13T15:50:52;97669.81;;;19.47;43.96
11172;BME280;5642;50.830;12.082;2023-03-13T15:53:34;97692.28;;;19.63;44.21
11172;BME280;5642;50.830;12.082;2023-03-13T15:56:02;97681.72;;;19.53;44.33
11172;BME280;5642;50.830;12.082;2023-03-13T15:58:31;97651.94;;;19.40;44.32
11172;BME280;5642;50.830;12.082;2023-03-13T16:00:58;97663.13;;;19.43;44.09
11172;BME280;5642;50.830;12.082;2023-03-13T16:03:26;97629.09;;;19.20;44.41
11172;BME280;5642;50.830;12.082;2023-03-13T16:05:55;97645.13;;;19.37;44.33
11172;BME280;5642;50.830;12.082;2023-03-13T16:08:26;97648.38;;;19.31;44.42
11172;BME280;5642;50.830;12.082;2023-03-13T16:10:52;97643.63;;;19.25;44.39
11172;BME280;5642;50.830;12.082;2023-03-13T16:13:19;97637.91;;;19.20;44.56
11172;BME280;5642;50.830;12.082;2023-03-13T16:15:46;97615.63;;;19.03;44.68
11172;BME280;5642;50.830;12.082;2023-03-13T16:18:18;97616.19;;;18.97;44.68
11172;BME280;5642;50.830;12.082;2023-03-13T17:19:00;97551.09;;;17.60;45.38
11172;BME280;5642;50.830;12.082;2023-03-13T17:21:30;97590.03;;;17.88;45.38
11172;BME280;5642;50.830;12.082;2023-03-13T17:24:00;97538.53;;;17.52;45.38
11172;BME280;5642;50.830;12.082;2023-03-13T17:26:35;97578.47;;;17.80;45.34
11172;BME280;5642;50.830;12.082;2023-03-13T17:29:02;97579.44;;;17.79;45.37
11172;BME280;5642;50.830;12.082;2023-03-13T17:31:30;97550.16;;;17.61;45.12
11172;BME280;5642;50.830;12.082;2023-03-13T17:34:04;97506.88;;;17.41;45.38
11172;BME280;5642;50.830;12.082;2023-03-13T17:36:31;97564.78;;;17.84;45.41
11172;BME280;5642;50.830;12.082;2023-03-13T17:38:59;97579.44;;;17.88;45.17
11172;BME280;5642;50.830;12.082;2023-03-13T17:41:30;97585.56;;;17.98;45.13
11172;BME280;5642;50.830;12.082;2023-03-13T17:44:01;97567.88;;;17.89;45.30
11172;BME280;5642;50.830;12.082;2023-03-13T17:47:04;97528.81;;;17.63;45.30
11172;BME280;5642;50.830;12.082;2023-03-13T17:49:35;97514.88;;;17.60;45.21
11172;BME280;5642;50.830;12.082;2023-03-13T17:52:02;97564.09;;;17.92;45.12
11172;BME280;5642;50.830;12.082;2023-03-13T17:54:28;97584.47;;;18.11;45.18
11172;BME280;5642;50.830;12.082;2023-03-13T17:56:55;97537.75;;;17.90;45.25
11172;BME280;5642;50.830;12.082;2023-03-13T17:59:21;97523.25;;;17.85;45.27
11172;BME280;5642;50.830;12.082;2023-03-13T18:01:47;97568.44;;;18.03;45.46
11172;BME280;5642;50.830;12.082;2023-03-13T18:04:13;97593.94;;;17.94;45.21
11172;BME280;5642;50.830;12.082;2023-03-13T18:06:41;97744.19;;;17.82;45.29
11172;BME280;5642;50.830;12.082;2023-03-13T18:09:16;97763.34;;;17.65;45.28
11172;BME280;5642;50.830;12.082;2023-03-13T18:11:43;97835.91;;;17.42;45.73
11172;BME280;5642;50.830;12.082;2023-03-13T18:14:10;97754.91;;;16.45;46.01
11172;BME280;5642;50.830;12.082;2023-03-13T18:16:41;97741.56;;;15.92;46.43
11172;BME280;5642;50.830;12.082;2023-03-13T19:21:22;97602.56;;;13.16;48.04
11172;BME280;5642;50.830;12.082;2023-03-13T19:23:49;97547.72;;;12.99;47.78
11172;BME280;5642;50.830;12.082;2023-03-13T19:26:30;97576.66;;;13.36;47.73
11172;BME280;5642;50.830;12.082;2023-03-13T19:28:58;97567.50;;;13.41;47.91
11172;BME280;5642;50.830;12.082;2023-03-13T19:31:24;97550.63;;;13.44;47.87
11172;BME280;5642;50.830;12.082;2023-03-13T19:33:51;97550.31;;;13.48;47.81
11172;BME280;5642;50.830;12.082;2023-03-13T19:36:23;97501.69;;;13.30;48.02
11172;BME280;5642;50.830;12.082;2023-03-13T19:38:52;97502.53;;;13.30;48.04
11172;BME280;5642;50.830;12.082;2023-03-13T19:41:19;97529.28;;;13.48;47.95
11172;BME280;5642;50.830;12.082;2023-03-13T19:43:45;97520.00;;;13.55;48.08
11172;BME280;5642;50.830;12.082;2023-03-13T19:46:27;97493.13;;;13.39;48.26
11172;BME280;5642;50.830;12.082;2023-03-13T19:48:55;97536.16;;;13.62;48.10
11172;BME280;5642;50.830;12.082;2023-03-13T19:51:22;97492.53;;;13.36;48.10
11172;BME280;5642;50.830;12.082;2023-03-13T19:53:56;97495.25;;;13.34;48.49
11172;BME280;5642;50.830;12.082;2023-03-13T19:56:26;97489.47;;;13.29;48.67
11172;BME280;5642;50.830;12.082;2023-03-13T19:59:01;97518.03;;;13.46;48.29
11172;BME280;5642;50.830;12.082;2023-03-13T20:01:29;97551.56;;;13.55;48.40
11172;BME280;5642;50.830;12.082;2023-03-13T20:03:55;97565.56;;;13.56;48.51
11172;BME280;5642;50.830;12.082;2023-03-13T20:06:27;97541.34;;;13.51;48.65
11172;BME280;5642;50.830;12.082;2023-03-13T20:08:58;97511.69;;;13.25;48.50
11172;BME280;5642;50.830;12.082;2023-03-13T20:11:26;97509.06;;;13.25;48.84
11172;BME280;5642;50.830;12.082;2023-03-13T20:13:54;97494.47;;;13.21;48.58
11172;BME280;5642;50.830;12.082;2023-03-13T20:16:22;97520.47;;;13.37;48.75
11172;BME280;5642;50.830;12.082;2023-03-13T20:18:51;97546.41;;;13.54;48.80
11172;BME280;5642;50.830;12.082;2023-03-13T20:21:17;97523.25;;;13.35;48.50
11172;BME280;5642;50.830;12.082;2023-03-13T20:23:44;97543.38;;;13.47;48.83
11172;BME280;5642;50.830;12.082;2023-03-13T20:26:14;97507.50;;;13.46;48.67
11172;BME280;5642;50.830;12.082;2023-03-13T20:28:43;97486.19;;;13.38;48.71
11172;BME280;5642;50.830;12.082;2023-03-13T20:31:10;97461.19;;;13.32;48.58
11172;BME280;5642;50.830;12.082;2023-03-13T20:33:37;97473.16;;;13.37;48.56
11172;BME280;5642;50.830;12.082;2023-03-13T20:36:14;97468.22;;;13.32;48.64
11172;BME280;5642;50.830;12.082;2023-03-13T20:38:45;97518.91;;;13.58;48.77
11172;BME280;5642;50.830;12.082;2023-03-13T20:41:15;97486.09;;;13.40;48.75
11172;BME280;5642;50.830;12.082;2023-03-13T20:43:42;97518.81;;;13.59;49.04
11172;BME280;5642;50.830;12.082;2023-03-13T20:46:08;97477.41;;;13.26;49.17
11172;BME280;5642;50.830;12.082;2023-03-13T20:48:36;97543.94;;;13.63;49.10
11172;BME280;5642;50.830;12.082;2023-03-13T20:51:05;97516.25;;;13.47;48.93
11172;BME280;5642;50.830;12.082;2023-03-13T20:53:36;97524.97;;;13.47;49.01
11172;BME280;5642;50.830;12.082;2023-03-13T20:56:06;97556.03;;;13.66;49.01
11172;BME280;5642;50.830;12.082;2023-03-13T20:58:33;97557.09;;;13.63;49.34
11172;BME280;5642;50.830;12.082;2023-03-13T21:01:00;97557.59;;;13.68;49.17
11172;BME280;5642;50.830;12.082;2023-03-13T21:03:27;97495.38;;;13.32;49.42
11172;BME280;5642;50.830;12.082;2023-03-13T21:05:53;97539.09;;;13.57;49.43
11172;BME280;5642;50.830;12.082;2023-03-13T21:08:19;97541.97;;;13.54;49.42
11172;BME280;5642;50.830;12.082;2023-03-13T21:10:46;97502.91;;;13.37;49.45
11172;BME280;5642;50.830;12.082;2023-03-13T21:13:12;97508.81;;;13.41;49.64
11172;BME280;5642;50.830;12.082;2023-03-13T21:15:38;97530.50;;;13.55;49.30
11172;BME280;5642;50.830;12.082;2023-03-13T21:18:05;97530.16;;;13.60;49.56
11172;BME280;5642;50.830;12.082;2023-03-13T21:20:31;97537.28;;;13.70;49.55
11172;BME280;5642;50.830;12.082;2023-03-13T21:22:58;97538.69;;;13.63;49.42
11172;BME280;5642;50.830;12.082;2023-03-13T21:25:24;97575.28;;;13.90;49.53
11172;BME280;5642;50.830;12.082;2023-03-13T21:27:53;97587.75;;;13.99;49.30
11172;BME280;5642;50.830;12.082;2023-03-13T21:30:21;97594.00;;;14.09;49.49
11172;BME280;5642;50.830;12.082;2023-03-13T21:32:48;97580.94;;;14.08;49.33
11172;BME280;5642;50.830;12.082;2023-03-13T21:35:17;97542.97;;;13.88;49.28
11172;BME280;5642;50.830;12.082;2023-03-13T21:37:44;97516.84;;;13.74;49.39
11172;BME280;5642;50.830;12.082;2023-03-13T21:40:13;97532.78;;;13.84;49.40
11172;BME280;5642;50.830;12.082;2023-03-13T21:42:40;97586.50;;;14.16;49.51
11172;BME280;5642;50.830;12.082;2023-03-13T21:45:06;97592.59;;;14.17;49.64
11172;BME280;5642;50.830;12.082;2023-03-13T21:47:33;97602.41;;;14.15;49.67
11172;BME280;5642;50.830;12.082;2023-03-13T21:50:03;97611.13;;;14.15;49.79
11172;BME280;5642;50.830;12.082;2023-03-13T21:52:30;97610.28;;;14.15;49.84
11172;BME280;5642;50.830;12.082;2023-03-13T21:55:05;97612.81;;;14.16;49.81
11172;BME280;5642;50.830;12.082;2023-03-13T21:57:31;97589.41;;;14.00;49.87
11172;BME280;5642;50.830;12.082;2023-03-13T21:59:57;97603.47;;;14.12;49.94
11172;BME280;5642;50.830;12.082;2023-03-13T22:02:23;97573.38;;;13.92;50.02
11172;BME280;5642;50.830;12.082;2023-03-13T22:04:49;97591.72;;;14.05;49.93
11172;BME280;5642;50.830;12.082;2023-03-13T22:07:15;97551.59;;;13.90;49.82
11172;BME280;5642;50.830;12.082;2023-03-13T22:09:42;97605.28;;;14.23;49.96
11172;BME280;5642;50.830;12.082;2023-03-13T22:12:09;97559.63;;;14.00;50.05
11172;BME280;5642;50.830;12.082;2023-03-13T22:14:35;97499.72;;;13.68;50.06
11172;BME280;5642;50.830;12.082;2023-03-13T22:17:02;97468.03;;;13.70;49.98
11172;BME280;5642;50.830;12.082;2023-03-13T22:19:28;97455.97;;;13.79;49.92
11172;BME280;5642;50.830;12.082;2023-03-13T22:21:54;97439.38;;;13.89;50.03
11172;BME280;5642;50.830;12.082;2023-03-13T22:24:21;97423.97;;;14.07;49.99
11172;BME280;5642;50.830;12.082;2023-03-13T22:26:47;97382.91;;;13.93;49.94
11172;BME280;5642;50.830;12.082;2023-03-13T22:29:13;97355.03;;;14.02;50.00
11172;BME280;5642;50.830;12.082;2023-03-13T22:31:39;97339.00;;;13.83;49.98
11172;BME280;5642;50.830;12.082;2023-03-13T22:34:05;97380.41;;;13.92;50.19
11172;BME280;5642;50.830;12.082;2023-03-13T22:36:31;97341.28;;;13.87;50.14
11172;BME280;5642;50.830;12.082;2023-03-13T22:38:58;97331.34;;;13.68;50.23
11172;BME280;5642;50.830;12.082;2023-03-13T22:41:24;97309.22;;;13.60;50.26
11172;BME280;5642;50.830;12.082;2023-03-13T22:43:50;97284.19;;;13.43;50.26
11172;BME280;5642;50.830;12.082;2023-03-13T22:46:16;97319.25;;;13.55;50.30
11172;BME280;5642;50.830;12.082;2023-03-13T22:48:45;97381.34;;;13.80;50.19
11172;BME280;5642;50.830;12.082;2023-03-13T22:51:12;97357.03;;;13.65;50.27
11172;BME280;5642;50.830;12.082;2023-03-13T22:53:40;97369.13;;;13.67;50.42
11172;BME280;5642;50.830;12.082;2023-03-13T22:56:07;97379.28;;;13.72;50.31
11172;BME280;5642;50.830;12.082;2023-03-13T22:58:38;97327.75;;;13.58;50.32
11172;BME280;5642;50.830;12.082;2023-03-13T23:01:15;97325.47;;;13.65;50.26
11172;BME280;5642;50.830;12.082;2023-03-13T23:03:43;97336.34;;;13.71;50.45
11172;BME280;5642;50.830;12.082;2023-03-13T23:06:28;97320.69;;;13.48;50.46
11172;BME280;5642;50.830;12.082;2023-03-13T23:08:54;97367.22;;;13.69;50.76
11172;BME280;5642;50.830;12.082;2023-03-13T23:11:20;97362.44;;;13.63;50.66
11172;BME280;5642;50.830;12.082;2023-03-13T23:13:46;97355.81;;;13.58;50.79
11172;BME280;5642;50.830;12.082;2023-03-13T23:16:13;97334.16;;;13.43;50.62
11172;BME280;5642;50.830;12.082;2023-03-13T23:18:39;97361.72;;;13.61;50.78
11172;BME280;5642;50.830;12.082;2023-03-13T23:21:08;97369.13;;;13.67;50.65
11172;BME280;5642;50.830;12.082;2023-03-13T23:23:35;97328.78;;;13.45;50.86
11172;BME280;5642;50.830;12.082;2023-03-13T23:26:04;97300.19;;;13.29;50.94
11172;BME280;5642;50.830;12.082;2023-03-13T23:28:32;97339.09;;;13.48;50.78
11172;BME280;5642;50.830;12.082;2023-03-13T23:30:59;97364.81;;;13.66;51.10
11172;BME280;5642;50.830;12.082;2023-03-13T23:33:25;97340.66;;;13.61;51.13
11172;BME280;5642;50.830;12.082;2023-03-13T23:35:51;97302.38;;;13.35;51.24
11172;BME280;5642;50.830;12.082;2023-03-13T23:38:17;97373.34;;;13.70;51.02
11172;BME280;5642;50.830;12.082;2023-03-13T23:40:48;97343.41;;;13.49;51.08
11172;BME280;5642;50.830;12.082;2023-03-13T23:43:14;97318.16;;;13.35;51.21
11172;BME280;5642;50.830;12.082;2023-03-13T23:45:40;97345.44;;;13.56;51.47
11172;BME280;5642;50.830;12.082;2023-03-13T23:48:07;97330.94;;;13.51;51.41
11172;BME280;5642;50.830;12.082;2023-03-13T23:50:37;97305.50;;;13.40;51.28
11172;BME280;5642;50.830;12.082;2023-03-13T23:53:03;97281.19;;;13.25;51.68
11172;BME280;5642;50.830;12.082;2023-03-13T23:55:29;97257.63;;;13.13;51.54
11172;BME280;5642;50.830;12.082;2023-03-13T23:57:55;97263.59;;;13.15;51.54
